createdAt,value
2023-01-18T00:01:13.312Z,7.11
2023-01-18T00:03:43.134Z,6.31
2023-01-18T00:06:11.504Z,6.67
2023-01-18T00:08:42.261Z,6.46
2023-01-18T00:11:12.612Z,7.35
2023-01-18T00:13:41.002Z,7.87
2023-01-18T00:16:13.132Z,7.32
2023-01-18T00:18:41.101Z,6.93
2023-01-18T00:21:11.084Z,6.26
2023-01-18T00:23:39.025Z,6.07
2023-01-18T00:26:12.055Z,6.17
2023-01-18T00:28:40.964Z,6.19
2023-01-18T00:31:10.699Z,6.05
2023-01-18T00:33:38.799Z,6.16
2023-01-18T00:36:06.960Z,6.14
2023-01-18T00:38:34.793Z,6.31
2023-01-18T00:41:02.724Z,5.98
2023-01-18T00:43:39.841Z,6.33
2023-01-18T00:46:14.618Z,6.20
2023-01-18T00:48:44.239Z,6.56
2023-01-18T00:51:15.361Z,6.20
2023-01-18T00:53:44.267Z,6.04
2023-01-18T00:56:15.032Z,6.37
2023-01-18T00:58:43.101Z,6.13
2023-01-18T01:01:12.059Z,6.34
2023-01-18T01:03:59.236Z,6.26
2023-01-18T01:06:44.329Z,6.82
2023-01-18T01:09:13.411Z,6.34
2023-01-18T01:12:01.214Z,5.90
2023-01-18T01:14:49.288Z,5.90
2023-01-18T01:17:35.825Z,5.63
2023-01-18T01:20:22.731Z,5.85
2023-01-18T01:23:09.352Z,5.53
2023-01-18T01:25:56.528Z,5.48
2023-01-18T01:28:24.821Z,5.41
2023-01-18T01:30:57.628Z,5.27
2023-01-18T01:33:25.568Z,5.03
2023-01-18T01:36:01.957Z,5.01
2023-01-18T01:38:30.212Z,4.68
2023-01-18T01:41:07.085Z,4.89
2023-01-18T01:43:50.540Z,4.72
2023-01-18T01:46:25.806Z,4.83
2023-01-18T01:49:02.965Z,4.95
2023-01-18T01:51:34.008Z,5.03
2023-01-18T01:54:07.791Z,5.13
2023-01-18T01:56:35.798Z,4.90
2023-01-18T01:59:05.150Z,4.85
2023-01-18T02:01:34.824Z,5.18
2023-01-18T02:04:03.480Z,5.19
2023-01-18T02:06:35.110Z,5.39
2023-01-18T02:09:07.690Z,5.40
2023-01-18T02:11:35.708Z,5.59
2023-01-18T02:14:08.459Z,5.54
2023-01-18T02:16:39.053Z,5.23
2023-01-18T02:19:24.992Z,5.12
2023-01-18T02:22:13.128Z,5.39
2023-01-18T02:25:27.053Z,5.53
2023-01-18T02:28:13.679Z,5.93
2023-01-18T02:30:49.657Z,5.34
2023-01-18T02:33:47.115Z,5.69
2023-01-18T02:36:44.943Z,5.53
2023-01-18T02:39:31.647Z,5.64
2023-01-18T02:42:37.067Z,5.61
2023-01-18T02:45:40.949Z,6.08
2023-01-18T02:48:09.800Z,6.37
2023-01-18T02:50:37.703Z,6.23
2023-01-18T02:53:05.527Z,6.46
2023-01-18T02:56:18.168Z,6.50
2023-01-18T02:59:02.528Z,7.32
2023-01-18T03:01:45.236Z,6.97
2023-01-18T03:04:43.734Z,6.70
2023-01-18T03:07:19.935Z,7.18
2023-01-18T03:09:51.899Z,7.03
2023-01-18T03:12:24.234Z,7.32
2023-01-18T03:15:43.021Z,7.08
2023-01-18T03:19:02.286Z,7.25
2023-01-18T03:21:42.432Z,7.35
2023-01-18T03:33:46.205Z,7.46
2023-01-18T03:36:44.576Z,7.29
2023-01-18T03:39:32.340Z,7.69
2023-01-18T03:42:09.650Z,7.39
2023-01-18T03:44:49.277Z,7.39
2023-01-18T03:47:17.660Z,7.49
2023-01-18T03:49:45.671Z,7.63
2023-01-18T03:52:30.182Z,7.66
2023-01-18T03:55:21.297Z,7.73
2023-01-18T03:58:02.178Z,7.83
2023-01-18T04:00:31.547Z,7.65
2023-01-18T04:03:00.223Z,7.91
2023-01-18T04:05:28.878Z,7.65
2023-01-18T04:07:58.036Z,7.53
2023-01-18T04:10:27.193Z,7.72
2023-01-18T04:12:55.140Z,7.73
2023-01-18T04:15:24.195Z,7.70
2023-01-18T04:17:55.580Z,7.84
2023-01-18T04:20:23.921Z,8.07
2023-01-18T04:22:56.561Z,8.03
2023-01-18T04:25:24.931Z,8.22
2023-01-18T04:27:52.739Z,8.47
2023-01-18T04:30:20.711Z,8.71
2023-01-18T04:32:49.321Z,8.52
2023-01-18T04:35:19.179Z,8.66
2023-01-18T04:37:52.555Z,8.80
2023-01-18T04:40:21.836Z,8.79
2023-01-18T04:42:54.199Z,9.01
2023-01-18T04:45:22.352Z,9.50
2023-01-18T04:47:50.147Z,9.44
2023-01-18T04:50:18.859Z,9.55
2023-01-18T04:52:47.193Z,8.87
2023-01-18T04:55:15.238Z,8.99
2023-01-18T04:57:47.257Z,9.16
2023-01-18T05:00:15.779Z,9.39
2023-01-18T05:02:43.680Z,9.69
2023-01-18T05:05:15.426Z,10.13
2023-01-18T05:08:08.544Z,9.91
2023-01-18T05:10:37.935Z,9.34
2023-01-18T05:13:05.934Z,9.31
2023-01-18T05:15:35.016Z,9.36
2023-01-18T05:18:02.895Z,9.25
2023-01-18T05:20:31.871Z,9.86
2023-01-18T05:23:01.498Z,9.21
2023-01-18T05:25:29.420Z,9.78
2023-01-18T05:28:00.893Z,10.20
2023-01-18T05:30:32.237Z,9.83
2023-01-18T05:33:02.554Z,10.44
2023-01-18T05:35:33.415Z,10.73
2023-01-18T05:38:01.427Z,11.47
2023-01-18T05:40:29.953Z,11.74
2023-01-18T05:42:58.545Z,11.59
2023-01-18T05:45:27.074Z,11.04
2023-01-18T05:47:55.192Z,10.78
2023-01-18T05:50:23.011Z,10.14
2023-01-18T05:52:51.233Z,9.81
2023-01-18T05:55:19.235Z,9.89
2023-01-18T05:57:48.902Z,10.24
2023-01-18T06:00:17.187Z,10.24
2023-01-18T06:02:46.239Z,10.47
2023-01-18T06:05:14.123Z,10.93
2023-01-18T06:07:42.491Z,10.77
2023-01-18T06:10:11.231Z,11.07
2023-01-18T06:12:39.083Z,10.82
2023-01-18T06:15:09.406Z,11.12
2023-01-18T06:17:38.055Z,11.91
2023-01-18T06:20:06.689Z,11.67
2023-01-18T06:22:36.277Z,11.61
2023-01-18T06:25:04.592Z,11.47
2023-01-18T06:27:33.280Z,11.91
2023-01-18T06:30:01.425Z,12.11
2023-01-18T06:32:29.856Z,12.69
2023-01-18T06:34:57.683Z,13.00
2023-01-18T06:46:06.380Z,13.69
2023-01-18T06:48:34.350Z,13.46
2023-01-18T06:51:05.221Z,14.13
2023-01-18T06:53:36.088Z,13.71
2023-01-18T06:56:11.276Z,13.88
2023-01-18T06:59:05.890Z,14.83
2023-01-18T07:01:35.056Z,15.61
2023-01-18T07:04:03.088Z,16.54
2023-01-18T07:06:32.198Z,17.30
2023-01-18T07:09:00.921Z,17.14
2023-01-18T07:11:29.872Z,16.50
2023-01-18T07:13:57.928Z,16.38
2023-01-18T07:16:27.452Z,15.00
2023-01-18T07:19:21.245Z,15.71
2023-01-18T07:21:49.712Z,14.80
2023-01-18T07:24:43.213Z,15.15
2023-01-18T07:27:11.069Z,14.68
2023-01-18T07:29:44.301Z,14.57
2023-01-18T07:32:12.381Z,15.00
2023-01-18T07:34:43.877Z,14.29
2023-01-18T07:37:13.352Z,15.46
2023-01-18T07:39:41.872Z,14.96
2023-01-18T07:42:11.409Z,14.13
2023-01-18T07:44:40.261Z,14.09
2023-01-18T07:47:09.894Z,15.38
2023-01-18T07:49:37.983Z,16.11
2023-01-18T07:52:05.846Z,15.70
2023-01-18T07:54:33.756Z,15.52
2023-01-18T07:57:01.642Z,15.73
2023-01-18T07:59:33.245Z,15.33
2023-01-18T08:02:03.213Z,14.89
2023-01-18T08:04:31.108Z,18.63
2023-01-18T08:06:59.253Z,30.12
2023-01-18T08:09:28.934Z,17.28
2023-01-18T08:11:58.080Z,20.74
2023-01-18T08:14:27.189Z,17.47
2023-01-18T08:16:55.007Z,15.28
2023-01-18T08:19:26.286Z,15.39
2023-01-18T08:21:54.284Z,15.90
2023-01-18T08:24:22.210Z,15.59
2023-01-18T08:26:50.018Z,15.86
2023-01-18T08:29:18.021Z,15.38
2023-01-18T08:31:45.859Z,15.44
2023-01-18T08:34:14.257Z,15.90
2023-01-18T08:36:42.486Z,16.59
2023-01-18T08:39:12.225Z,15.81
2023-01-18T08:41:41.247Z,16.38
2023-01-18T08:47:02.125Z,15.72
2023-01-18T08:49:32.756Z,15.18
2023-01-18T08:52:00.677Z,15.25
2023-01-18T08:54:29.293Z,15.04
2023-01-18T08:56:57.144Z,15.03
2023-01-18T08:59:26.016Z,14.97
2023-01-18T09:01:54.034Z,15.53
2023-01-18T09:04:22.896Z,15.77
2023-01-18T09:06:51.780Z,15.36
2023-01-18T09:09:22.942Z,15.23
2023-01-18T09:11:51.889Z,15.52
2023-01-18T09:14:20.230Z,15.66
2023-01-18T09:16:50.065Z,15.51
2023-01-18T09:19:18.219Z,16.47
2023-01-18T09:21:46.567Z,16.99
2023-01-18T09:24:14.667Z,17.33
2023-01-18T09:26:44.517Z,17.60
2023-01-18T09:29:13.085Z,16.77
2023-01-18T09:31:40.939Z,16.12
2023-01-18T09:34:18.899Z,15.80
2023-01-18T09:36:51.397Z,16.15
2023-01-18T09:39:21.169Z,15.96
2023-01-18T09:41:54.793Z,15.90
2023-01-18T09:44:35.230Z,16.34
2023-01-18T09:47:07.026Z,16.60
2023-01-18T09:49:52.097Z,16.66
2023-01-18T09:52:43.264Z,16.35
2023-01-18T09:55:56.944Z,17.02
2023-01-18T09:58:44.340Z,15.87
2023-01-18T10:01:18.622Z,16.47
2023-01-18T10:04:19.259Z,16.75
2023-01-18T10:06:49.428Z,16.96
2023-01-18T10:09:31.263Z,17.64
2023-01-18T10:12:18.724Z,17.97
2023-01-18T10:18:00.983Z,18.42
2023-01-18T10:20:43.482Z,18.06
2023-01-18T10:23:40.264Z,17.77
2023-01-18T10:26:29.670Z,17.32
2023-01-18T10:29:28.349Z,16.77
2023-01-18T10:32:09.589Z,16.92
2023-01-18T10:34:43.249Z,17.53
2023-01-18T10:37:37.514Z,17.56
2023-01-18T10:40:10.442Z,18.07
2023-01-18T10:42:48.276Z,18.26
2023-01-18T10:45:22.492Z,17.24
2023-01-18T10:47:56.851Z,18.00
2023-01-18T10:50:53.607Z,15.98
2023-01-18T10:53:30.941Z,14.76
2023-01-18T10:56:07.279Z,14.36
2023-01-18T10:58:39.150Z,12.74
2023-01-18T11:01:21.631Z,12.60
2023-01-18T11:04:08.136Z,13.06
2023-01-18T11:06:56.410Z,12.07
2023-01-18T11:09:40.743Z,11.05
2023-01-18T11:12:43.403Z,10.72
2023-01-18T11:15:14.912Z,12.33
2023-01-18T11:17:43.873Z,9.77
2023-01-18T11:20:18.352Z,8.67
2023-01-18T11:22:59.625Z,7.14
2023-01-18T11:25:40.904Z,8.02
2023-01-18T11:28:31.280Z,7.13
2023-01-18T11:31:15.066Z,6.10
2023-01-18T11:33:59.684Z,6.29
2023-01-18T11:36:43.897Z,6.63
2023-01-18T11:39:34.299Z,6.31
2023-01-18T11:42:22.215Z,5.33
2023-01-18T11:45:03.234Z,4.13
2023-01-18T11:47:52.271Z,3.33
2023-01-18T11:50:31.846Z,2.91
2023-01-18T11:53:31.410Z,2.91
2023-01-18T11:56:21.290Z,2.85
2023-01-18T11:58:49.650Z,3.63
2023-01-18T12:01:37.251Z,2.53
2023-01-18T12:04:14.921Z,2.61
2023-01-18T12:07:19.036Z,2.36
2023-01-18T12:09:54.226Z,2.34
2023-01-18T12:12:44.629Z,2.41
2023-01-18T12:15:43.122Z,2.43
2023-01-18T12:18:14.002Z,4.15
2023-01-18T12:20:45.517Z,2.78
2023-01-18T12:23:43.291Z,2.41
2023-01-18T12:26:30.235Z,2.84
2023-01-18T12:29:16.834Z,2.56
2023-01-18T12:32:13.955Z,2.81
2023-01-18T12:34:50.537Z,2.41
2023-01-18T12:37:29.475Z,2.39
2023-01-18T12:40:09.564Z,2.41
2023-01-18T12:42:46.394Z,2.30
2023-01-18T12:45:24.273Z,2.40
2023-01-18T12:48:12.251Z,2.26
2023-01-18T12:50:42.700Z,2.44
2023-01-18T12:53:16.389Z,2.64
2023-01-18T12:55:49.734Z,2.70
2023-01-18T12:58:24.275Z,2.95
2023-01-18T13:01:04.409Z,3.31
2023-01-18T13:04:03.590Z,3.01
2023-01-18T13:06:34.844Z,3.02
2023-01-18T13:09:15.855Z,2.80
2023-01-18T13:11:44.843Z,2.67
2023-01-18T13:14:41.003Z,2.61
2023-01-18T13:17:16.317Z,2.36
2023-01-18T13:19:54.912Z,2.25
2023-01-18T13:22:41.290Z,2.17
2023-01-18T13:25:19.028Z,2.31
2023-01-18T13:27:58.281Z,2.67
2023-01-18T13:30:28.841Z,2.96
2023-01-18T13:32:56.914Z,2.92
2023-01-18T13:35:33.379Z,2.37
2023-01-18T13:38:13.414Z,2.38
2023-01-18T13:41:12.265Z,2.42
2023-01-18T13:43:41.382Z,3.35
2023-01-18T13:46:09.917Z,3.12
2023-01-18T13:48:56.516Z,2.50
2023-01-18T13:51:39.553Z,2.15
2023-01-18T13:54:29.248Z,2.28
2023-01-18T13:57:01.359Z,2.31
2023-01-18T13:59:50.537Z,2.17
2023-01-18T14:02:28.093Z,2.23
2023-01-18T14:05:10.538Z,2.57
2023-01-18T14:07:50.776Z,2.90
2023-01-18T14:10:53.448Z,2.41
2023-01-18T14:13:46.533Z,2.51
2023-01-18T14:16:34.416Z,3.43
2023-01-18T14:19:15.805Z,4.67
2023-01-18T14:21:56.225Z,2.31
2023-01-18T14:24:48.243Z,2.46
2023-01-18T14:27:21.260Z,2.15
2023-01-18T14:30:03.909Z,2.41
2023-01-18T14:32:40.615Z,2.47
2023-01-18T14:35:25.857Z,2.53
2023-01-18T14:38:17.513Z,2.47
2023-01-18T14:40:50.488Z,2.43
2023-01-18T14:43:32.235Z,2.36
2023-01-18T14:46:13.322Z,2.97
2023-01-18T14:48:56.115Z,3.19
2023-01-18T14:51:28.346Z,3.36
2023-01-18T14:54:00.459Z,3.53
2023-01-18T14:56:32.094Z,5.07
2023-01-18T14:59:18.740Z,5.49
2023-01-18T15:01:56.396Z,4.52
2023-01-18T15:04:26.427Z,4.27
2023-01-18T15:07:05.301Z,3.44
2023-01-18T15:09:37.322Z,3.53
2023-01-18T15:12:09.526Z,3.80
2023-01-18T15:14:47.585Z,3.97
2023-01-18T15:17:22.115Z,3.73
2023-01-18T15:19:55.082Z,3.05
2023-01-18T15:25:29.301Z,3.80
2023-01-18T15:28:11.717Z,3.61
2023-01-18T15:30:54.316Z,4.01
2023-01-18T15:33:24.801Z,3.71
2023-01-18T15:35:57.705Z,3.67
2023-01-18T15:38:25.620Z,4.09
2023-01-18T15:41:04.607Z,4.27
2023-01-18T15:43:42.252Z,5.00
2023-01-18T15:46:14.334Z,7.01
2023-01-18T15:48:50.233Z,7.08
2023-01-18T15:51:22.347Z,4.86
2023-01-18T15:53:56.316Z,4.39
2023-01-18T15:56:29.344Z,4.52
2023-01-18T15:59:25.208Z,4.51
2023-01-18T16:02:09.484Z,4.59
2023-01-18T16:04:37.803Z,4.76
2023-01-18T16:07:30.496Z,4.50
2023-01-18T16:10:16.956Z,4.75
2023-01-18T16:12:49.420Z,5.19
2023-01-18T16:15:29.178Z,4.75
2023-01-18T16:18:07.781Z,5.36
2023-01-18T16:20:36.122Z,5.03
2023-01-18T16:23:10.150Z,7.72
2023-01-18T16:25:38.204Z,9.05
2023-01-18T16:28:06.347Z,12.43
2023-01-18T16:30:36.749Z,6.57
2023-01-18T16:36:20.498Z,7.75
2023-01-18T16:38:49.927Z,12.89
2023-01-18T16:41:18.076Z,7.98
2023-01-18T16:43:48.305Z,7.26
2023-01-18T16:46:16.472Z,6.11
2023-01-18T16:48:45.457Z,6.25
2023-01-18T16:51:17.091Z,5.74
2023-01-18T16:53:44.991Z,6.01
2023-01-18T16:56:14.995Z,6.84
2023-01-18T16:58:44.002Z,7.60
2023-01-18T17:01:14.303Z,9.19
2023-01-18T17:03:43.137Z,18.40
2023-01-18T17:06:20.479Z,22.47
2023-01-18T17:08:50.484Z,22.31
2023-01-18T17:11:19.003Z,18.02
2023-01-18T17:13:48.305Z,15.85
2023-01-18T17:16:19.343Z,16.19
2023-01-18T17:18:48.008Z,17.83
2023-01-18T17:21:20.039Z,14.19
2023-01-18T17:23:47.954Z,10.79
2023-01-18T17:26:16.762Z,9.37
2023-01-18T17:28:45.085Z,9.89
2023-01-18T17:34:13.344Z,11.17
2023-01-18T17:36:41.982Z,10.26
2023-01-18T17:39:09.850Z,9.40
2023-01-18T17:41:38.356Z,9.33
2023-01-18T17:44:09.299Z,9.33
2023-01-18T17:46:37.240Z,8.36
2023-01-18T17:49:06.289Z,7.27
2023-01-18T17:51:35.516Z,6.78
2023-01-18T17:56:58.299Z,5.91
2023-01-18T17:59:26.301Z,6.29
2023-01-18T18:01:54.242Z,6.08
2023-01-18T18:04:22.299Z,6.05
2023-01-18T18:06:55.189Z,6.17
2023-01-18T18:09:24.403Z,6.61
2023-01-18T18:11:52.451Z,6.77
2023-01-18T18:14:21.353Z,7.37
2023-01-18T18:16:49.254Z,8.28
2023-01-18T18:19:18.472Z,8.46
2023-01-18T18:21:46.486Z,8.61
2023-01-18T18:24:14.872Z,9.16
2023-01-18T18:26:44.315Z,10.93
2023-01-18T18:29:12.161Z,10.22
2023-01-18T18:31:45.588Z,10.35
2023-01-18T18:34:17.208Z,10.52
2023-01-18T18:36:45.049Z,11.41
2023-01-18T18:39:13.067Z,11.66
2023-01-18T18:41:41.887Z,17.38
2023-01-18T18:44:13.470Z,11.69
2023-01-18T18:46:41.384Z,11.23
2023-01-18T18:49:09.363Z,11.05
2023-01-18T18:51:40.309Z,10.69
2023-01-18T18:54:10.931Z,10.68
2023-01-18T18:56:39.155Z,11.55
2023-01-18T18:59:07.235Z,10.97
2023-01-18T19:01:36.362Z,11.24
2023-01-18T19:04:05.381Z,11.28
2023-01-18T19:06:36.657Z,11.43
2023-01-18T19:09:29.835Z,10.43
2023-01-18T19:11:58.288Z,10.81
2023-01-18T19:14:26.564Z,10.57
2023-01-18T19:19:50.315Z,10.78
2023-01-18T19:22:18.435Z,10.73
2023-01-18T19:25:11.762Z,10.59
2023-01-18T19:27:39.605Z,11.31
2023-01-18T19:30:14.347Z,10.80
2023-01-18T19:32:42.937Z,10.94
2023-01-18T19:35:12.105Z,11.26
2023-01-18T19:37:41.391Z,10.41
2023-01-18T19:40:10.821Z,11.12
2023-01-18T19:42:38.885Z,11.43
2023-01-18T19:45:08.205Z,11.29
2023-01-18T19:47:37.501Z,11.11
2023-01-18T19:50:05.839Z,11.76
2023-01-18T19:52:34.290Z,11.67
2023-01-18T19:55:27.663Z,12.27
2023-01-18T19:57:56.727Z,11.97
2023-01-18T20:00:24.539Z,12.39
2023-01-18T20:02:53.330Z,13.23
2023-01-18T20:05:22.650Z,13.20
2023-01-18T20:07:52.001Z,22.84
2023-01-18T20:10:20.375Z,18.36
2023-01-18T20:12:49.597Z,14.72
2023-01-18T20:15:18.631Z,13.88
2023-01-18T20:17:46.576Z,13.00
2023-01-18T20:20:24.134Z,13.15
2023-01-18T20:23:02.525Z,12.97
2023-01-18T20:25:34.332Z,13.37
2023-01-18T20:28:03.071Z,12.73
2023-01-18T20:30:30.979Z,13.06
2023-01-18T20:32:59.743Z,13.00
2023-01-18T20:35:29.041Z,12.56
2023-01-18T20:38:21.667Z,15.64
2023-01-18T20:40:50.098Z,14.57
2023-01-18T20:43:18.308Z,13.64
2023-01-18T20:45:46.368Z,13.06
2023-01-18T20:48:14.344Z,13.03
2023-01-18T20:51:09.325Z,12.80
2023-01-18T20:53:38.237Z,13.10
2023-01-18T20:56:27.745Z,12.75
2023-01-18T20:58:57.934Z,12.45
2023-01-18T21:01:32.908Z,11.85
2023-01-18T21:04:02.759Z,12.85
2023-01-18T21:06:31.866Z,12.65
2023-01-18T21:09:04.364Z,12.52
2023-01-18T21:11:32.284Z,12.68
2023-01-18T21:14:27.334Z,13.41
2023-01-18T21:16:55.267Z,12.59
2023-01-18T21:19:31.422Z,11.87
2023-01-18T21:21:59.315Z,12.24
2023-01-18T21:24:57.268Z,12.48
2023-01-18T21:27:50.453Z,12.07
2023-01-18T21:30:19.526Z,12.91
2023-01-18T21:32:48.052Z,12.25
2023-01-18T21:35:16.156Z,13.42
2023-01-18T21:37:44.299Z,12.08
2023-01-18T21:40:12.468Z,12.10
2023-01-18T21:43:00.296Z,12.02
2023-01-18T21:45:46.947Z,12.85
2023-01-18T21:48:15.309Z,12.83
2023-01-18T21:51:01.768Z,12.63
2023-01-18T21:53:48.282Z,13.26
2023-01-18T21:56:16.100Z,13.12
2023-01-18T21:58:52.939Z,13.30
2023-01-18T22:01:37.737Z,13.95
2023-01-18T22:04:27.352Z,13.57
2023-01-18T22:06:57.739Z,14.23
2023-01-18T22:09:27.900Z,13.45
2023-01-18T22:11:57.359Z,13.73
2023-01-18T22:14:26.190Z,12.90
2023-01-18T22:16:54.120Z,12.50
2023-01-18T22:19:23.036Z,12.87
2023-01-18T22:21:54.332Z,13.07
2023-01-18T22:24:26.108Z,13.06
2023-01-18T22:26:54.102Z,12.93
2023-01-18T22:29:21.920Z,12.20
2023-01-18T22:31:50.380Z,11.53
2023-01-18T22:34:20.361Z,12.33
2023-01-18T22:36:48.596Z,12.45
2023-01-18T22:39:16.898Z,11.99
2023-01-18T22:41:44.829Z,12.46
2023-01-18T22:44:17.421Z,12.41
2023-01-18T22:46:45.313Z,13.04
2023-01-18T22:49:15.023Z,14.22
2023-01-18T22:52:08.357Z,14.52
2023-01-18T22:54:36.219Z,14.39
2023-01-18T22:57:06.365Z,13.58
2023-01-18T22:59:35.017Z,13.37
2023-01-18T23:02:03.301Z,13.91
2023-01-18T23:04:31.512Z,13.88
2023-01-18T23:07:00.972Z,13.79
2023-01-18T23:09:29.367Z,13.78
2023-01-18T23:11:57.527Z,14.08
2023-01-18T23:14:43.875Z,13.70
2023-01-18T23:17:30.563Z,14.20
2023-01-18T23:19:58.444Z,13.73
2023-01-18T23:22:55.350Z,13.39
2023-01-18T23:25:23.203Z,13.75
2023-01-18T23:27:51.994Z,13.23
2023-01-18T23:30:21.376Z,12.79
2023-01-18T23:32:49.358Z,13.10
2023-01-18T23:35:19.014Z,13.14
2023-01-18T23:37:47.339Z,14.17
2023-01-18T23:40:33.703Z,13.53
2023-01-18T23:43:20.376Z,13.57
2023-01-18T23:46:07.134Z,13.37
2023-01-18T23:48:54.387Z,13.59
2023-01-18T23:51:41.708Z,15.30
2023-01-18T23:54:15.080Z,13.93
2023-01-18T23:56:43.999Z,14.12
2023-01-18T23:59:12.030Z,15.12
